createdAt,value
2019-03-18T00:01:59.885Z,10.72
2019-03-18T00:04:31.508Z,10.60
2019-03-18T00:07:03.057Z,10.54
2019-03-18T00:09:34.607Z,10.46
2019-03-18T00:12:06.347Z,10.34
2019-03-18T00:14:37.909Z,10.26
2019-03-18T00:17:09.399Z,10.21
2019-03-18T00:19:42.919Z,10.28
2019-03-18T00:22:14.386Z,10.19
2019-03-18T00:24:46.057Z,10.12
2019-03-18T00:27:17.362Z,10.07
2019-03-18T00:29:48.974Z,10.09
2019-03-18T00:32:20.658Z,9.98
2019-03-18T00:34:52.464Z,9.97
2019-03-18T00:37:24.153Z,9.93
2019-03-18T00:39:55.660Z,9.69
2019-03-18T00:42:28.212Z,9.59
2019-03-18T00:44:59.689Z,9.66
2019-03-18T00:47:31.052Z,9.68
2019-03-18T00:50:02.760Z,9.74
2019-03-18T00:52:34.322Z,9.65
2019-03-18T00:55:06.150Z,9.67
2019-03-18T00:57:37.700Z,9.64
2019-03-18T01:00:09.322Z,9.69
2019-03-18T01:02:40.963Z,9.59
2019-03-18T01:05:12.974Z,9.50
2019-03-18T01:07:45.790Z,9.37
2019-03-18T01:10:17.397Z,9.15
2019-03-18T01:12:48.868Z,9.20
2019-03-18T01:15:27.989Z,9.20
2019-03-18T01:17:53.364Z,9.06
2019-03-18T01:20:24.962Z,9.20
2019-03-18T01:22:56.554Z,9.21
2019-03-18T01:25:28.153Z,9.22
2019-03-18T01:27:59.962Z,9.26
2019-03-18T01:30:31.655Z,9.15
2019-03-18T01:33:03.406Z,9.22
2019-03-18T01:35:34.890Z,9.22
2019-03-18T01:38:06.188Z,9.26
2019-03-18T01:40:37.863Z,9.18
2019-03-18T01:43:09.170Z,9.16
2019-03-18T01:45:41.288Z,9.15
2019-03-18T01:48:12.785Z,9.19
2019-03-18T01:50:44.539Z,9.14
2019-03-18T01:53:16.203Z,9.15
2019-03-18T01:55:47.544Z,9.14
2019-03-18T01:58:19.361Z,9.08
2019-03-18T02:00:50.723Z,9.01
2019-03-18T02:03:22.456Z,8.87
2019-03-18T02:05:54.188Z,8.89
2019-03-18T02:08:25.860Z,8.87
2019-03-18T02:10:57.639Z,8.86
2019-03-18T02:13:29.410Z,8.87
2019-03-18T02:16:01.804Z,8.87
2019-03-18T02:18:33.457Z,8.88
2019-03-18T02:21:05.264Z,8.87
2019-03-18T02:23:37.069Z,8.60
2019-03-18T02:26:08.394Z,8.55
2019-03-18T02:28:40.113Z,8.40
2019-03-18T02:31:12.418Z,8.31
2019-03-18T02:33:44.115Z,8.32
2019-03-18T02:36:15.758Z,8.30
2019-03-18T02:38:47.448Z,8.23
2019-03-18T02:41:18.841Z,8.24
2019-03-18T02:43:50.117Z,8.29
2019-03-18T02:46:21.822Z,8.16
2019-03-18T02:48:53.184Z,8.18
2019-03-18T02:51:24.461Z,8.02
2019-03-18T02:53:56.143Z,8.13
2019-03-18T02:56:27.722Z,8.19
2019-03-18T02:58:58.988Z,8.14
2019-03-18T03:01:30.366Z,8.16
2019-03-18T03:04:01.813Z,8.23
2019-03-18T03:06:33.559Z,8.19
2019-03-18T03:09:06.692Z,8.29
2019-03-18T03:11:38.029Z,8.27
2019-03-18T03:14:09.347Z,8.32
2019-03-18T03:16:40.570Z,8.45
2019-03-18T03:19:11.885Z,8.44
2019-03-18T03:21:43.147Z,8.51
2019-03-18T03:24:14.500Z,8.54
2019-03-18T03:26:46.115Z,8.61
2019-03-18T03:29:17.819Z,8.53
2019-03-18T03:31:49.126Z,8.58
2019-03-18T03:34:20.838Z,8.63
2019-03-18T03:36:52.065Z,8.54
2019-03-18T03:39:23.364Z,8.43
2019-03-18T03:41:55.081Z,8.40
2019-03-18T03:44:26.481Z,8.37
2019-03-18T03:46:58.100Z,8.39
2019-03-18T03:49:29.423Z,8.48
2019-03-18T03:52:00.932Z,8.43
2019-03-18T03:54:32.601Z,8.14
2019-03-18T03:57:04.376Z,8.05
2019-03-18T03:59:36.321Z,7.83
2019-03-18T04:02:08.153Z,7.79
2019-03-18T04:04:39.635Z,7.71
2019-03-18T04:07:12.100Z,7.54
2019-03-18T04:09:43.728Z,7.46
2019-03-18T04:12:15.253Z,7.33
2019-03-18T04:14:46.974Z,7.26
2019-03-18T04:17:19.502Z,7.22
2019-03-18T04:19:51.290Z,7.12
2019-03-18T04:22:22.916Z,7.11
2019-03-18T04:24:54.366Z,7.05
2019-03-18T04:27:26.066Z,7.10
2019-03-18T04:29:57.571Z,7.13
2019-03-18T04:32:29.059Z,7.00
2019-03-18T04:35:00.826Z,7.00
2019-03-18T04:37:32.436Z,7.05
2019-03-18T04:40:03.856Z,7.07
2019-03-18T04:42:35.308Z,6.96
2019-03-18T04:45:07.065Z,6.84
2019-03-18T04:47:38.669Z,6.92
2019-03-18T04:50:10.869Z,6.90
2019-03-18T04:52:42.325Z,6.79
2019-03-18T04:55:13.938Z,6.57
2019-03-18T04:57:45.398Z,6.55
2019-03-18T05:00:16.938Z,6.48
2019-03-18T05:02:48.438Z,6.45
2019-03-18T05:05:19.902Z,6.49
2019-03-18T05:07:51.395Z,6.47
2019-03-18T05:10:22.848Z,6.47
2019-03-18T05:12:54.243Z,6.51
2019-03-18T05:15:25.870Z,6.52
2019-03-18T05:17:57.274Z,6.57
2019-03-18T05:20:28.856Z,6.59
2019-03-18T05:23:00.270Z,6.75
2019-03-18T05:25:31.989Z,6.81
2019-03-18T05:28:03.412Z,6.99
2019-03-18T05:30:34.869Z,7.39
2019-03-18T05:33:06.413Z,7.79
2019-03-18T05:35:37.981Z,8.04
2019-03-18T05:38:09.554Z,8.41
2019-03-18T05:40:41.089Z,8.56
2019-03-18T05:43:12.457Z,8.97
2019-03-18T05:45:43.973Z,9.64
2019-03-18T05:48:15.376Z,10.44
2019-03-18T05:50:47.018Z,10.57
2019-03-18T05:53:18.665Z,11.30
2019-03-18T05:55:50.135Z,11.85
2019-03-18T05:58:21.688Z,11.77
2019-03-18T06:00:53.214Z,12.35
2019-03-18T06:03:24.800Z,12.24
2019-03-18T06:05:55.791Z,12.56
2019-03-18T06:08:27.223Z,13.13
2019-03-18T06:10:58.820Z,13.23
2019-03-18T06:13:30.433Z,12.41
2019-03-18T06:16:02.007Z,12.52
2019-03-18T06:18:33.624Z,12.09
2019-03-18T06:21:05.264Z,12.82
2019-03-18T06:23:36.607Z,13.21
2019-03-18T06:26:07.958Z,13.67
2019-03-18T06:28:39.364Z,14.07
2019-03-18T06:31:10.404Z,14.37
2019-03-18T06:33:41.597Z,14.56
2019-03-18T06:36:12.925Z,14.59
2019-03-18T06:38:44.084Z,14.72
2019-03-18T06:41:15.286Z,15.23
2019-03-18T06:43:46.625Z,15.49
2019-03-18T06:46:18.151Z,15.66
2019-03-18T06:48:49.520Z,14.73
2019-03-18T06:51:20.609Z,15.09
2019-03-18T06:53:51.820Z,14.59
2019-03-18T06:56:23.112Z,14.61
2019-03-18T06:58:54.155Z,14.33
2019-03-18T07:01:27.211Z,14.12
2019-03-18T07:03:58.500Z,14.08
2019-03-18T07:06:30.111Z,14.33
2019-03-18T07:09:01.463Z,14.67
2019-03-18T07:11:33.593Z,15.03
2019-03-18T07:14:04.849Z,14.73
2019-03-18T07:16:35.930Z,14.81
2019-03-18T07:19:07.276Z,14.83
2019-03-18T07:21:38.317Z,14.69
2019-03-18T07:24:09.646Z,14.90
2019-03-18T07:26:40.850Z,15.05
2019-03-18T07:29:12.070Z,15.20
2019-03-18T07:31:43.217Z,15.38
2019-03-18T07:34:14.350Z,15.48
2019-03-18T07:36:45.621Z,15.90
2019-03-18T07:39:17.024Z,15.95
2019-03-18T07:41:48.329Z,16.22
2019-03-18T07:44:21.467Z,16.31
2019-03-18T07:46:52.860Z,16.31
2019-03-18T07:49:25.103Z,16.43
2019-03-18T07:51:56.269Z,16.43
2019-03-18T07:54:32.783Z,17.13
2019-03-18T07:57:00.679Z,17.13
2019-03-18T07:59:32.268Z,17.09
2019-03-18T08:02:03.849Z,17.30
2019-03-18T08:04:37.577Z,17.13
2019-03-18T08:07:09.394Z,17.18
2019-03-18T08:09:40.805Z,17.28
2019-03-18T08:12:12.069Z,17.28
2019-03-18T08:14:43.569Z,17.53
2019-03-18T08:17:14.869Z,17.82
2019-03-18T08:19:46.236Z,18.05
2019-03-18T08:22:17.452Z,18.27
2019-03-18T08:24:48.743Z,18.70
2019-03-18T08:27:20.026Z,18.58
2019-03-18T08:29:51.564Z,18.58
2019-03-18T08:32:22.876Z,18.16
2019-03-18T08:34:54.286Z,18.16
2019-03-18T08:37:25.586Z,18.52
2019-03-18T08:39:57.009Z,18.44
2019-03-18T08:42:28.298Z,18.46
2019-03-18T08:44:59.255Z,18.82
2019-03-18T08:47:30.416Z,19.03
2019-03-18T08:50:01.417Z,19.31
2019-03-18T08:52:32.546Z,19.48
2019-03-18T08:55:03.643Z,19.59
2019-03-18T08:57:34.726Z,19.62
2019-03-18T09:00:06.697Z,19.67
2019-03-18T09:02:38.134Z,20.03
2019-03-18T09:05:09.790Z,19.81
2019-03-18T09:07:41.264Z,19.76
2019-03-18T09:10:12.854Z,20.01
2019-03-18T09:12:45.422Z,20.25
2019-03-18T09:15:16.771Z,20.49
2019-03-18T09:17:48.052Z,20.63
2019-03-18T09:20:19.635Z,20.63
2019-03-18T09:22:51.222Z,20.75
2019-03-18T09:25:22.696Z,20.76
2019-03-18T09:27:53.904Z,20.45
2019-03-18T09:30:25.160Z,20.56
2019-03-18T09:32:56.643Z,20.80
2019-03-18T09:35:27.938Z,20.64
2019-03-18T09:37:59.610Z,20.76
2019-03-18T09:40:30.549Z,20.95
2019-03-18T09:43:01.745Z,20.98
2019-03-18T09:45:33.113Z,21.39
2019-03-18T09:48:04.578Z,21.46
2019-03-18T09:50:35.967Z,21.72
2019-03-18T09:53:07.614Z,21.77
2019-03-18T09:55:39.049Z,21.69
2019-03-18T09:58:10.554Z,22.14
2019-03-18T10:00:42.866Z,22.34
2019-03-18T10:03:14.010Z,22.20
2019-03-18T10:05:46.396Z,22.30
2019-03-18T10:08:17.842Z,22.19
2019-03-18T10:10:49.012Z,21.93
2019-03-18T10:13:20.424Z,22.44
2019-03-18T10:15:51.677Z,22.39
2019-03-18T10:18:23.032Z,22.57
2019-03-18T10:20:54.317Z,22.37
2019-03-18T10:23:25.511Z,22.48
2019-03-18T10:25:56.519Z,22.71
2019-03-18T10:28:27.942Z,22.79
2019-03-18T10:30:59.451Z,22.92
2019-03-18T10:33:30.894Z,23.22
2019-03-18T10:36:02.526Z,23.73
2019-03-18T10:38:33.925Z,23.53
2019-03-18T10:41:05.354Z,23.54
2019-03-18T10:43:37.844Z,23.91
2019-03-18T10:46:09.197Z,23.95
2019-03-18T10:48:40.254Z,23.89
2019-03-18T10:51:11.856Z,24.12
2019-03-18T10:53:44.619Z,24.43
2019-03-18T10:56:16.198Z,24.68
2019-03-18T10:58:47.802Z,24.35
2019-03-18T11:01:19.085Z,24.68
2019-03-18T11:03:50.330Z,24.86
2019-03-18T11:06:21.672Z,24.79
2019-03-18T11:08:53.151Z,25.07
2019-03-18T11:11:24.169Z,24.86
2019-03-18T11:13:55.272Z,24.43
2019-03-18T11:16:26.659Z,24.43
2019-03-18T11:18:57.699Z,24.08
2019-03-18T11:21:28.899Z,24.48
2019-03-18T11:23:59.892Z,24.44
2019-03-18T11:26:31.213Z,24.87
2019-03-18T11:29:02.564Z,25.31
2019-03-18T11:31:33.805Z,25.22
2019-03-18T11:34:05.231Z,25.40
2019-03-18T11:36:36.302Z,25.57
2019-03-18T11:39:08.999Z,25.82
2019-03-18T11:41:40.241Z,25.91
2019-03-18T11:44:11.358Z,26.17
2019-03-18T11:46:42.342Z,25.97
2019-03-18T11:49:13.448Z,25.48
2019-03-18T11:51:44.450Z,26.28
2019-03-18T11:54:15.995Z,26.22
2019-03-18T11:56:47.369Z,26.97
2019-03-18T11:59:20.869Z,26.79
2019-03-18T12:01:51.402Z,26.67
2019-03-18T12:04:22.590Z,26.30
2019-03-18T12:06:55.180Z,26.88
2019-03-18T12:09:26.638Z,26.97
2019-03-18T12:11:57.849Z,26.94
2019-03-18T12:14:29.105Z,27.19
2019-03-18T12:17:00.342Z,26.58
2019-03-18T12:19:31.704Z,25.70
2019-03-18T12:22:03.096Z,25.29
2019-03-18T12:24:34.091Z,25.14
2019-03-18T12:27:05.589Z,24.94
2019-03-18T12:29:37.109Z,24.36
2019-03-18T12:32:08.548Z,24.27
2019-03-18T12:34:39.693Z,24.25
2019-03-18T12:37:10.760Z,24.14
2019-03-18T12:39:43.025Z,24.27
2019-03-18T12:42:14.396Z,24.07
2019-03-18T12:44:45.561Z,24.30
2019-03-18T12:47:16.870Z,24.44
2019-03-18T12:49:47.886Z,24.37
2019-03-18T12:52:19.186Z,24.54
2019-03-18T12:54:50.133Z,24.51
2019-03-18T12:57:21.081Z,24.36
2019-03-18T12:59:52.377Z,24.33
2019-03-18T13:02:23.714Z,24.25
2019-03-18T13:04:55.148Z,24.29
2019-03-18T13:07:26.683Z,23.92
2019-03-18T13:09:58.070Z,24.14
2019-03-18T13:12:28.979Z,24.38
2019-03-18T13:15:00.382Z,24.53
2019-03-18T13:17:31.494Z,24.49
2019-03-18T13:20:02.625Z,24.59
2019-03-18T13:22:33.839Z,24.48
2019-03-18T13:25:05.325Z,24.34
2019-03-18T13:27:37.147Z,24.37
2019-03-18T13:30:09.997Z,24.37
2019-03-18T13:32:41.116Z,24.49
2019-03-18T13:35:12.462Z,24.05
2019-03-18T13:37:43.840Z,23.90
2019-03-18T13:40:15.317Z,23.71
2019-03-18T13:42:46.332Z,23.89
2019-03-18T13:45:18.729Z,24.03
2019-03-18T13:47:50.529Z,23.79
2019-03-18T13:50:21.888Z,23.78
2019-03-18T13:52:53.094Z,23.80
2019-03-18T13:55:24.395Z,23.71
2019-03-18T13:57:55.552Z,23.51
2019-03-18T14:00:26.601Z,23.70
2019-03-18T14:02:57.800Z,23.83
2019-03-18T14:05:29.144Z,23.80
2019-03-18T14:08:01.463Z,23.60
2019-03-18T14:10:33.843Z,23.55
2019-03-18T14:13:07.655Z,23.46
2019-03-18T14:15:38.619Z,23.48
2019-03-18T14:18:10.093Z,23.48
2019-03-18T14:20:41.123Z,23.53
2019-03-18T14:23:12.588Z,23.54
2019-03-18T14:25:45.530Z,23.50
2019-03-18T14:28:16.777Z,23.45
2019-03-18T14:30:48.152Z,23.38
2019-03-18T14:33:19.703Z,23.36
2019-03-18T14:35:50.795Z,23.27
2019-03-18T14:38:22.062Z,23.16
2019-03-18T14:40:53.168Z,23.04
2019-03-18T14:43:24.498Z,22.98
2019-03-18T14:45:55.802Z,22.95
2019-03-18T14:48:27.588Z,23.06
2019-03-18T14:50:58.759Z,23.04
2019-03-18T14:53:30.173Z,23.03
2019-03-18T14:56:01.375Z,23.08
2019-03-18T14:58:33.881Z,22.97
2019-03-18T15:01:05.958Z,23.02
2019-03-18T15:03:37.023Z,22.86
2019-03-18T15:06:08.435Z,22.89
2019-03-18T15:08:40.085Z,22.99
2019-03-18T15:11:11.424Z,22.87
2019-03-18T15:13:42.910Z,22.72
2019-03-18T15:16:14.347Z,22.74
2019-03-18T15:18:45.499Z,22.70
2019-03-18T15:21:16.682Z,22.56
2019-03-18T15:23:47.913Z,22.61
2019-03-18T15:26:18.957Z,22.56
2019-03-18T15:28:50.212Z,22.64
2019-03-18T15:31:21.459Z,22.58
2019-03-18T15:33:52.565Z,22.41
2019-03-18T15:36:23.585Z,22.46
2019-03-18T15:38:54.824Z,22.48
2019-03-18T15:41:26.067Z,22.40
2019-03-18T15:43:57.591Z,22.42
2019-03-18T15:46:29.076Z,22.38
2019-03-18T15:49:00.359Z,22.31
2019-03-18T15:51:31.546Z,22.29
2019-03-18T15:54:02.507Z,22.16
2019-03-18T15:56:33.602Z,22.18
2019-03-18T15:59:04.578Z,22.13
2019-03-18T16:01:35.484Z,22.10
2019-03-18T16:04:06.440Z,21.89
2019-03-18T16:06:37.464Z,21.78
2019-03-18T16:09:09.434Z,21.74
2019-03-18T16:11:40.437Z,21.62
2019-03-18T16:14:11.534Z,21.64
2019-03-18T16:16:42.823Z,21.59
2019-03-18T16:19:14.289Z,21.56
2019-03-18T16:21:45.325Z,21.51
2019-03-18T16:24:17.221Z,21.50
2019-03-18T16:26:48.336Z,21.39
2019-03-18T16:29:19.529Z,21.25
2019-03-18T16:31:50.804Z,21.13
2019-03-18T16:34:21.768Z,21.12
2019-03-18T16:36:54.829Z,21.11
2019-03-18T16:39:26.260Z,21.09
2019-03-18T16:41:57.589Z,20.82
2019-03-18T16:44:28.910Z,20.82
2019-03-18T16:47:00.199Z,20.76
2019-03-18T16:49:31.581Z,20.68
2019-03-18T16:52:02.849Z,20.68
2019-03-18T16:54:33.742Z,20.63
2019-03-18T16:57:04.690Z,20.60
2019-03-18T16:59:35.721Z,20.65
2019-03-18T17:02:06.915Z,20.50
2019-03-18T17:04:38.327Z,20.34
2019-03-18T17:07:09.650Z,20.26
2019-03-18T17:09:40.921Z,20.23
2019-03-18T17:12:12.125Z,20.18
2019-03-18T17:14:43.351Z,20.21
2019-03-18T17:17:14.502Z,20.11
2019-03-18T17:19:45.528Z,20.07
2019-03-18T17:22:16.937Z,19.91
2019-03-18T17:24:49.296Z,19.97
2019-03-18T17:27:20.610Z,19.89
2019-03-18T17:29:51.948Z,19.89
2019-03-18T17:32:23.146Z,19.87
2019-03-18T17:34:54.115Z,19.91
2019-03-18T17:37:25.311Z,19.72
2019-03-18T17:39:56.659Z,19.76
2019-03-18T17:42:27.851Z,19.83
2019-03-18T17:44:59.047Z,19.76
2019-03-18T17:47:30.215Z,19.73
2019-03-18T17:50:01.193Z,19.73
2019-03-18T17:52:32.529Z,19.67
2019-03-18T17:55:03.557Z,19.80
2019-03-18T17:57:34.788Z,19.84
2019-03-18T18:00:07.105Z,19.96
2019-03-18T18:02:38.456Z,19.91
2019-03-18T18:05:09.547Z,19.74
2019-03-18T18:07:40.984Z,19.62
2019-03-18T18:10:12.005Z,19.56
2019-03-18T18:12:43.052Z,19.30
2019-03-18T18:15:14.303Z,19.25
2019-03-18T18:17:45.567Z,19.11
2019-03-18T18:20:16.900Z,19.04
2019-03-18T18:22:48.227Z,18.94
2019-03-18T18:25:19.340Z,19.00
2019-03-18T18:27:50.581Z,18.87
2019-03-18T18:30:21.890Z,18.72
2019-03-18T18:32:53.202Z,18.73
2019-03-18T18:35:26.649Z,18.67
2019-03-18T18:37:59.725Z,18.51
2019-03-18T18:40:30.637Z,18.48
2019-03-18T18:43:01.770Z,18.25
2019-03-18T18:45:32.897Z,17.90
2019-03-18T18:48:04.020Z,17.90
2019-03-18T18:50:35.302Z,17.94
2019-03-18T18:53:06.566Z,18.05
2019-03-18T18:55:37.625Z,17.90
2019-03-18T18:58:08.637Z,17.69
2019-03-18T19:00:39.757Z,17.85
2019-03-18T19:03:11.068Z,17.76
2019-03-18T19:05:42.250Z,17.65
2019-03-18T19:08:13.186Z,17.65
2019-03-18T19:10:44.232Z,17.36
2019-03-18T19:13:17.693Z,17.26
2019-03-18T19:15:48.069Z,17.13
2019-03-18T19:18:19.268Z,17.05
2019-03-18T19:20:50.327Z,17.05
2019-03-18T19:23:21.405Z,17.01
2019-03-18T19:25:53.075Z,17.05
2019-03-18T19:28:24.289Z,17.22
2019-03-18T19:30:56.507Z,17.09
2019-03-18T19:33:27.663Z,16.98
2019-03-18T19:35:59.095Z,16.83
2019-03-18T19:38:31.063Z,16.89
2019-03-18T19:41:02.131Z,16.95
2019-03-18T19:43:33.316Z,17.00
2019-03-18T19:46:04.404Z,17.02
2019-03-18T19:48:35.368Z,17.00
2019-03-18T19:51:06.622Z,17.04
2019-03-18T19:53:48.353Z,17.09
2019-03-18T19:56:10.242Z,17.04
2019-03-18T19:58:41.457Z,16.99
2019-03-18T20:01:12.446Z,16.90
2019-03-18T20:03:43.934Z,16.86
2019-03-18T20:06:15.035Z,16.84
2019-03-18T20:08:46.272Z,16.86
2019-03-18T20:11:17.426Z,16.91
2019-03-18T20:13:48.741Z,16.76
2019-03-18T20:16:20.041Z,16.79
2019-03-18T20:18:51.265Z,16.64
2019-03-18T20:21:22.204Z,16.64
2019-03-18T20:24:00.804Z,16.66
2019-03-18T20:26:26.108Z,16.62
2019-03-18T20:28:57.106Z,16.43
2019-03-18T20:31:28.223Z,16.26
2019-03-18T20:33:59.259Z,16.26
2019-03-18T20:36:30.170Z,16.18
2019-03-18T20:39:01.173Z,16.02
2019-03-18T20:41:33.230Z,16.01
2019-03-18T20:44:04.229Z,15.99
2019-03-18T20:46:35.148Z,16.06
2019-03-18T20:49:06.460Z,16.06
2019-03-18T20:51:37.451Z,16.02
2019-03-18T20:54:12.278Z,16.02
2019-03-18T20:56:42.413Z,16.02
2019-03-18T20:59:13.400Z,16.02
2019-03-18T21:01:44.381Z,15.92
2019-03-18T21:04:15.706Z,15.92
2019-03-18T21:06:46.859Z,16.00
2019-03-18T21:09:18.146Z,16.08
2019-03-18T21:11:49.411Z,16.08
2019-03-18T21:14:20.910Z,16.08
2019-03-18T21:16:51.997Z,16.10
2019-03-18T21:19:23.147Z,16.16
2019-03-18T21:21:54.518Z,16.17
2019-03-18T21:24:25.480Z,16.17
2019-03-18T21:26:56.507Z,16.27
2019-03-18T21:29:27.454Z,16.40
2019-03-18T21:31:58.651Z,16.46
2019-03-18T21:34:30.053Z,16.46
2019-03-18T21:37:01.520Z,16.45
2019-03-18T21:39:32.579Z,16.45
2019-03-18T21:42:03.504Z,16.54
2019-03-18T21:44:34.516Z,16.53
2019-03-18T21:47:05.618Z,16.43
2019-03-18T21:49:36.648Z,16.36
2019-03-18T21:52:07.569Z,16.36
2019-03-18T21:54:38.684Z,16.44
2019-03-18T21:57:10.043Z,16.47
2019-03-18T21:59:41.495Z,16.36
2019-03-18T22:02:12.700Z,16.14
2019-03-18T22:04:43.704Z,16.21
2019-03-18T22:07:14.951Z,16.20
2019-03-18T22:09:45.949Z,16.20
2019-03-18T22:12:17.118Z,16.19
2019-03-18T22:14:48.547Z,16.33
2019-03-18T22:17:19.870Z,16.32
2019-03-18T22:19:51.215Z,16.19
2019-03-18T22:22:22.396Z,15.94
2019-03-18T22:24:53.547Z,16.09
2019-03-18T22:27:24.734Z,16.07
2019-03-18T22:29:55.915Z,16.06
2019-03-18T22:32:27.164Z,16.07
2019-03-18T22:34:58.444Z,16.15
2019-03-18T22:37:29.615Z,16.21
2019-03-18T22:40:00.685Z,16.30
2019-03-18T22:42:31.690Z,16.22
2019-03-18T22:45:02.999Z,15.95
2019-03-18T22:47:34.086Z,15.87
2019-03-18T22:50:06.096Z,15.87
2019-03-18T22:52:37.122Z,15.78
2019-03-18T22:55:08.809Z,15.78
2019-03-18T22:57:40.153Z,15.59
2019-03-18T23:00:29.160Z,15.45
2019-03-18T23:03:01.781Z,15.26
2019-03-18T23:05:32.696Z,15.07
2019-03-18T23:08:03.765Z,15.03
2019-03-18T23:10:35.021Z,14.99
2019-03-18T23:13:06.261Z,15.02
2019-03-18T23:15:37.432Z,15.06
2019-03-18T23:18:08.437Z,15.01
2019-03-18T23:20:39.451Z,14.95
2019-03-18T23:23:10.753Z,15.04
2019-03-18T23:25:42.022Z,15.03
2019-03-18T23:28:13.301Z,15.11
2019-03-18T23:30:44.251Z,15.15
2019-03-18T23:33:15.381Z,15.19
2019-03-18T23:35:46.578Z,15.19
2019-03-18T23:38:17.947Z,14.97
2019-03-18T23:40:49.322Z,14.85
2019-03-18T23:43:21.457Z,14.89
2019-03-18T23:45:52.753Z,14.96
2019-03-18T23:48:24.016Z,14.87
2019-03-18T23:50:55.294Z,14.81
2019-03-18T23:53:26.635Z,14.85
2019-03-18T23:55:58.077Z,14.66
2019-03-18T23:58:29.489Z,14.67
